Time;durP1;ratioP1;P1;durP2;ratioP2;P2;SDS_P1;SDS_P2;PMS_P1;PMS_P2;Temp;Humidity;BMP_temperature;BMP_pressure;BME280_temperature;BME280_humidity;BME280_pressure;Samples;Min_cycle;Max_cycle;Signal;HPM_P1;HPM_P2
2021/11/02 00:00:16;;;;;;;3.97;2.03;;;;;;;11.01;59.81;99884.09;5043474;27;113201;-71
2021/11/02 00:02:44;;;;;;;4.07;1.70;;;;;;;10.98;59.90;99890.44;5044787;27;124321;-71
2021/11/02 00:05:13;;;;;;;3.92;1.70;;;;;;;10.96;59.80;99876.41;5042087;27;123307;-72
2021/11/02 00:07:41;;;;;;;3.90;1.70;;;;;;;10.95;59.73;99879.19;5046291;27;114167;-71
2021/11/02 00:10:08;;;;;;;4.80;1.75;;;;;;;10.93;59.68;99871.31;5043379;27;114007;-71
2021/11/02 00:12:35;;;;;;;4.95;1.95;;;;;;;10.91;59.74;99873.22;5043927;27;124998;-71
2021/11/02 00:15:06;;;;;;;3.47;1.95;;;;;;;10.90;59.78;99872.34;5038429;27;124031;-71
2021/11/02 00:17:37;;;;;;;4.72;1.98;;;;;;;10.87;59.97;99872.56;5042330;27;114365;-71
2021/11/02 00:20:07;;;;;;;4.90;1.83;;;;;;;10.85;59.89;99874.44;5039761;27;113870;-71
2021/11/02 00:22:36;;;;;;;4.38;1.60;;;;;;;10.84;59.76;99871.91;5040483;27;124775;-71
2021/11/02 00:25:05;;;;;;;4.65;1.90;;;;;;;10.82;59.92;99879.09;5046800;27;124359;-71
2021/11/02 00:27:36;;;;;;;3.72;2.08;;;;;;;10.80;60.14;99880.97;5043948;27;115054;-71
2021/11/02 00:30:08;;;;;;;4.68;2.10;;;;;;;10.78;60.00;99878.41;5049579;27;114057;-71
2021/11/02 00:32:35;;;;;;;3.20;1.67;;;;;;;10.77;59.99;99881.16;5044091;27;124440;-71
2021/11/02 00:35:05;;;;;;;4.55;1.85;;;;;;;10.76;60.05;99884.75;5047414;27;123165;-70
2021/11/02 00:37:32;;;;;;;2.80;1.70;;;;;;;10.74;59.89;99876.03;5049012;27;114069;-71
2021/11/02 00:40:02;;;;;;;3.97;1.88;;;;;;;10.71;59.83;99877.94;5048959;27;115132;-71
2021/11/02 00:42:39;;;;;;;4.22;2.00;;;;;;;10.69;60.27;99877.19;5041981;27;123141;-70
2021/11/02 00:45:13;;;;;;;4.50;1.92;;;;;;;10.68;60.16;99872.84;5047101;27;123405;-71
2021/11/02 00:47:40;;;;;;;3.42;1.60;;;;;;;10.66;59.88;99872.09;5045657;27;114468;-71
2021/11/02 00:50:12;;;;;;;3.63;1.88;;;;;;;10.65;60.10;99873.00;5048989;27;113052;-71
2021/11/02 00:52:40;;;;;;;4.70;2.10;;;;;;;10.63;59.97;99877.56;5044693;27;122823;-71
2021/11/02 00:55:08;;;;;;;3.80;1.80;;;;;;;10.62;59.92;99881.13;5049920;27;124300;-71
2021/11/02 00:57:36;;;;;;;6.22;1.75;;;;;;;10.61;60.23;99876.81;5042712;27;113503;-70
2021/11/02 01:00:06;;;;;;;3.15;1.63;;;;;;;10.59;60.04;99878.69;5047864;27;113692;-70
2021/11/02 01:02:33;;;;;;;3.20;1.60;;;;;;;10.57;60.20;99880.59;5046452;27;123890;-71
2021/11/02 01:05:01;;;;;;;4.55;1.90;;;;;;;10.55;60.22;99877.19;5043207;27;123500;-71
2021/11/02 01:07:28;;;;;;;3.72;1.70;;;;;;;10.52;59.95;99877.34;5045310;27;114107;-70
2021/11/02 01:09:55;;;;;;;2.90;1.60;;;;;;;10.51;60.02;99870.38;5047560;27;113839;-71
2021/11/02 01:12:22;;;;;;;3.53;1.50;;;;;;;10.50;60.14;99879.25;5042547;27;123568;-70
2021/11/02 01:14:49;;;;;;;5.30;1.90;;;;;;;10.48;60.45;99873.19;5043736;27;124256;-71
2021/11/02 01:17:16;;;;;;;2.45;1.48;;;;;;;10.45;60.24;99870.72;5040217;27;115090;-71
2021/11/02 01:19:44;;;;;;;3.90;1.63;;;;;;;10.44;60.14;99871.69;5043689;27;115166;-70
2021/11/02 01:22:15;;;;;;;5.53;1.55;;;;;;;10.43;60.20;99867.31;5041576;27;124279;-71
2021/11/02 01:24:42;;;;;;;2.80;1.50;;;;;;;10.41;60.32;99869.22;5050665;27;122821;-71
2021/11/02 01:27:10;;;;;;;2.78;1.48;;;;;;;10.39;60.09;99865.81;5050385;27;113441;-71
2021/11/02 01:29:37;;;;;;;5.13;1.77;;;;;;;10.37;60.27;99867.69;5042520;27;113403;-71
2021/11/02 01:32:06;;;;;;;3.33;1.83;;;;;;;10.35;60.43;99864.28;5045557;27;124138;-72
2021/11/02 01:34:39;;;;;;;6.40;1.60;;;;;;;10.32;60.19;99866.19;5048369;27;123437;-71
2021/11/02 01:37:08;;;;;;;2.47;1.50;;;;;;;10.30;60.37;99869.81;5047173;27;113508;-71
2021/11/02 01:39:37;;;;;;;5.50;2.03;;;;;;;10.29;60.46;99863.66;5045095;27;112762;-71
2021/11/02 01:42:07;;;;;;;3.13;1.50;;;;;;;10.28;60.61;99864.63;5049262;27;123555;-70
2021/11/02 01:44:35;;;;;;;3.00;1.45;;;;;;;10.28;60.59;99862.00;5049200;27;123997;-71
2021/11/02 01:47:04;;;;;;;3.63;1.55;;;;;;;10.27;60.46;99865.56;5043612;27;113505;-70
2021/11/02 01:49:35;;;;;;;3.42;1.60;;;;;;;10.26;60.64;99866.50;5042536;27;112482;-71
2021/11/02 01:52:03;;;;;;;3.08;1.50;;;;;;;10.25;60.19;99867.44;5044691;27;123151;-71
2021/11/02 01:54:31;;;;;;;3.58;1.48;;;;;;;10.24;60.53;99867.53;5044462;27;123899;-71
2021/11/02 01:56:59;;;;;;;3.38;1.58;;;;;;;10.22;60.50;99875.56;5044262;27;114531;-71
2021/11/02 01:59:31;;;;;;;5.65;1.80;;;;;;;10.21;60.38;99868.56;5049785;27;113222;-76
2021/11/02 02:02:36;;;;;;;3.45;1.48;;;;;;;10.19;60.47;99864.31;5059289;27;123427;-71
2021/11/02 02:05:31;;;;;;;3.10;1.48;;;;;;;10.19;60.46;99870.47;5056983;27;123541;-72
2021/11/02 02:08:19;;;;;;;3.53;1.50;;;;;;;10.16;60.51;99865.34;5045696;27;115734;-71
2021/11/02 02:11:21;;;;;;;2.50;1.60;;;;;;;10.12;60.46;99858.53;5041147;27;114346;-71
2021/11/02 02:14:04;;;;;;;2.60;1.55;;;;;;;10.10;60.34;99861.28;5044082;27;122871;-71
2021/11/02 02:16:38;;;;;;;3.28;1.40;;;;;;;10.08;60.34;99862.31;5043707;27;122884;-71
2021/11/02 02:19:30;;;;;;;6.43;1.75;;;;;;;10.05;60.85;99867.78;5050122;27;113646;-72
2021/11/02 02:22:11;;;;;;;3.40;1.75;;;;;;;10.04;60.74;99863.41;5046349;27;113155;-72
2021/11/02 02:25:30;;;;;;;2.08;1.35;;;;;;;10.03;60.96;99864.38;5041498;27;123248;-72
2021/11/02 02:28:07;;;;;;;4.00;1.55;;;;;;;10.03;60.85;99859.06;5045674;27;123428;-72
2021/11/02 02:30:39;;;;;;;3.60;1.52;;;;;;;10.03;60.88;99859.06;5049050;27;113717;-71
2021/11/02 02:33:07;;;;;;;2.60;1.40;;;;;;;10.03;61.18;99859.06;5041307;27;114059;-72
2021/11/02 02:35:36;;;;;;;5.40;1.67;;;;;;;10.05;61.14;99851.91;5040886;27;123331;-72
2021/11/02 02:38:04;;;;;;;4.45;1.30;;;;;;;10.07;60.96;99844.72;5042335;27;123199;-71
2021/11/02 02:40:32;;;;;;;3.60;1.50;;;;;;;10.08;61.12;99851.72;5038643;27;114812;-71
2021/11/02 02:43:01;;;;;;;4.25;1.70;;;;;;;10.10;61.24;99844.56;5042131;27;113110;-71
2021/11/02 02:45:29;;;;;;;5.85;1.77;;;;;;;10.11;61.08;99838.28;5049087;27;123138;-71
2021/11/02 02:47:58;;;;;;;2.95;1.50;;;;;;;10.13;61.21;99839.06;5045953;27;123324;-71
2021/11/02 02:50:30;;;;;;;2.97;1.67;;;;;;;10.14;61.30;99840.78;5049199;27;113543;-71
2021/11/02 02:53:00;;;;;;;5.28;1.45;;;;;;;10.14;61.29;99835.47;5046963;27;113162;-71
2021/11/02 02:55:30;;;;;;;3.45;1.60;;;;;;;10.16;61.17;99830.94;5050975;27;123529;-71
2021/11/02 02:58:00;;;;;;;4.43;1.60;;;;;;;10.18;61.17;99831.72;5051917;27;123388;-70
2021/11/02 03:00:27;;;;;;;2.45;1.27;;;;;;;10.18;61.30;99830.88;5044612;27;114378;-70
2021/11/02 03:02:56;;;;;;;5.72;1.77;;;;;;;10.18;61.52;99831.72;5046961;27;115167;-71
2021/11/02 03:05:26;;;;;;;2.60;1.35;;;;;;;10.19;61.08;99833.41;5041558;27;124239;-71
2021/11/02 03:08:11;;;;;;;3.30;1.50;;;;;;;10.20;61.05;99827.16;5037821;27;123264;-70
2021/11/02 03:10:57;;;;;;;4.25;1.45;;;;;;;10.19;61.17;99828.13;5043904;27;115020;-71
2021/11/02 03:13:28;;;;;;;6.07;1.58;;;;;;;10.18;61.37;99823.78;5045734;27;113081;-71
2021/11/02 03:16:04;;;;;;;2.78;1.45;;;;;;;10.19;61.28;99817.53;5047193;27;123831;-71
2021/11/02 03:18:52;;;;;;;2.77;1.43;;;;;;;10.19;61.23;99828.13;5058007;27;123400;-70
2021/11/02 03:44:49;;;;;;;3.90;1.80;;;;;;;10.13;61.54;99844.34;5048174;27;113088;-71
2021/11/02 03:50:22;;;;;;;2.95;1.60;;;;;;;10.13;61.17;99844.34;5049550;27;123553;-71
2021/11/02 03:58:30;;;;;;;3.25;1.35;;;;;;;10.12;61.06;99847.94;5049273;27;114030;-71
2021/11/02 04:01:14;;;;;;;2.05;1.30;;;;;;;10.11;61.32;99851.53;5053327;27;124052;-71
2021/11/02 04:29:32;;;;;;;3.08;1.40;;;;;;;9.81;61.43;99852.38;5046241;27;116932;-71
2021/11/02 04:32:36;;;;;;;3.70;1.50;;;;;;;9.78;61.53;99855.22;5046244;27;113157;-71
2021/11/02 05:56:18;;;;;;;;;;;;;;;10.06;61.29;99849.16;5047024;27;123628;-71
2021/11/02 05:59:02;;;;;;;2.78;1.83;;;;;;;10.08;61.53;99841.16;5045474;27;113632;-72
2021/11/02 06:01:52;;;;;;;4.50;1.83;;;;;;;10.09;61.68;99840.19;5044815;27;113109;-72
2021/11/02 06:30:40;;;;;;;2.67;1.50;;;;;;;10.05;61.57;99836.03;5028907;27;123815;-71
2021/11/02 06:36:09;;;;;;;2.15;1.58;;;;;;;10.06;61.47;99837.75;5049842;27;113929;-72
2021/11/02 06:49:26;;;;;;;2.90;1.80;;;;;;;10.00;61.60;99853.94;5051691;27;124072;-71
2021/11/02 06:52:43;;;;;;;3.63;1.90;;;;;;;10.01;61.73;99860.97;5046463;27;123935;-71
2021/11/02 07:25:40;;;;;;;3.70;1.83;;;;;;;10.47;62.16;99876.78;5050878;27;123627;-71
2021/11/02 08:47:36;;;;;;;2.72;1.67;;;;;;;11.85;62.04;99881.34;5040402;27;114200;-70
2021/11/02 08:50:07;;;;;;;4.28;2.15;;;;;;;11.92;62.05;99892.41;5036079;27;112909;-70
2021/11/02 08:52:36;;;;;;;3.45;1.90;;;;;;;11.97;62.11;99884.16;5034388;27;123932;-70
2021/11/02 08:55:06;;;;;;;4.32;1.70;;;;;;;12.01;62.16;99880.34;5040048;27;124013;-70
2021/11/02 08:57:33;;;;;;;4.53;1.90;;;;;;;12.07;62.10;99879.94;5032909;27;113858;-70
2021/11/02 09:00:05;;;;;;;5.25;1.95;;;;;;;12.09;62.13;99878.03;5039391;27;98041;-70
2021/11/02 09:02:35;;;;;;;4.20;2.08;;;;;;;12.15;61.94;99876.75;5037709;27;123871;-70
2021/11/02 09:05:11;;;;;;;3.55;1.92;;;;;;;12.17;62.10;99878.38;5051399;27;122725;-71
2021/11/02 09:07:43;;;;;;;4.20;2.10;;;;;;;12.20;62.20;99874.66;5038920;27;114129;-70
2021/11/02 09:10:15;;;;;;;3.25;2.20;;;;;;;12.23;62.22;99879.78;5048061;27;114320;-71
2021/11/02 09:12:49;;;;;;;3.78;1.95;;;;;;;12.26;62.22;99880.41;5038959;27;124097;-70
2021/11/02 09:15:34;;;;;;;5.40;2.20;;;;;;;12.32;62.20;99883.59;5051075;27;123889;-71
2021/11/02 09:18:06;;;;;;;4.03;2.00;;;;;;;12.37;62.19;99878.81;5040855;27;114340;-71
2021/11/02 09:20:35;;;;;;;4.95;2.30;;;;;;;12.40;62.17;99882.13;5052185;27;114032;-71
2021/11/02 09:23:04;;;;;;;3.92;2.50;;;;;;;12.42;62.15;99880.22;5050248;27;122919;-71
2021/11/02 09:25:33;;;;;;;6.95;2.50;;;;;;;12.46;62.30;99886.16;5042953;27;124210;-71
2021/11/02 09:28:00;;;;;;;6.65;2.38;;;;;;;12.49;62.28;99880.66;5035886;27;114918;-71
2021/11/02 09:30:28;;;;;;;4.82;2.28;;;;;;;12.54;62.37;99888.28;5043608;27;114803;-71
2021/11/02 09:32:56;;;;;;;5.18;2.60;;;;;;;12.57;62.37;99888.94;5042600;27;124245;-67
2021/11/02 09:35:26;;;;;;;4.25;2.50;;;;;;;12.62;62.31;99892.13;5036178;27;122658;-66
2021/11/02 09:38:14;;;;;;;3.63;2.35;;;;;;;12.66;62.42;99883.00;5046482;27;114351;-66
2021/11/02 09:41:01;;;;;;;4.95;2.17;;;;;;;12.73;62.43;99898.50;5036764;27;114313;-67
2021/11/02 09:44:01;;;;;;;5.40;2.42;;;;;;;12.76;62.26;99887.66;5030944;27;124288;-67
2021/11/02 09:47:11;;;;;;;5.85;2.50;;;;;;;12.81;62.27;99885.56;5031943;27;124077;-67
2021/11/02 09:50:03;;;;;;;4.15;2.50;;;;;;;12.87;62.29;99890.44;4988360;27;113119;-68
2021/11/02 09:52:56;;;;;;;7.32;2.38;;;;;;;12.93;62.35;99889.16;5038849;27;113861;-67
2021/11/02 09:55:26;;;;;;;5.78;2.67;;;;;;;12.97;62.35;99890.63;5032759;27;123817;-67
2021/11/02 09:58:11;;;;;;;3.67;2.30;;;;;;;13.00;62.24;99885.94;5030890;27;125057;-67
2021/11/02 10:00:47;;;;;;;5.05;2.50;;;;;;;13.07;62.15;99885.50;5017069;27;113300;-67
2021/11/02 10:03:35;;;;;;;4.80;2.83;;;;;;;13.12;62.33;99888.69;5038367;27;114614;-67
2021/11/02 10:06:29;;;;;;;3.58;2.05;;;;;;;13.16;62.33;99890.19;5042709;27;123900;-68
2021/11/02 10:09:09;;;;;;;4.68;2.50;;;;;;;13.18;62.11;99888.25;5051037;27;123222;-68
2021/11/02 10:12:01;;;;;;;5.32;2.50;;;;;;;13.23;62.17;99888.78;5033552;27;114930;-67
2021/11/02 10:14:32;;;;;;;4.38;2.60;;;;;;;13.29;62.14;99891.00;5037164;27;114013;-67
2021/11/02 10:17:39;;;;;;;5.80;2.58;;;;;;;13.33;62.30;99897.81;5034101;27;124258;-67
2021/11/02 10:20:49;;;;;;;5.50;3.05;;;;;;;13.41;62.33;99898.13;5033417;27;124009;-67
2021/11/02 10:23:40;;;;;;;7.00;3.05;;;;;;;13.47;62.24;99888.00;5036666;27;115983;-67
2021/11/02 10:26:46;;;;;;;3.80;2.67;;;;;;;13.52;62.05;99888.53;5041501;27;114819;-67
2021/11/02 10:29:40;;;;;;;5.55;2.60;;;;;;;13.56;62.17;99879.34;5033402;27;123795;-67
2021/11/02 10:32:14;;;;;;;6.55;2.50;;;;;;;13.62;61.94;99876.25;5051476;27;124482;-68
2021/11/02 10:34:59;;;;;;;4.40;2.55;;;;;;;13.67;61.97;99882.06;5038400;27;114551;-67
2021/11/02 10:37:53;;;;;;;3.88;2.40;;;;;;;13.72;62.00;99877.28;5036430;27;114777;-67
2021/11/02 10:40:29;;;;;;;4.47;3.13;;;;;;;13.77;62.00;99880.44;5040825;27;123913;-67
2021/11/02 10:43:09;;;;;;;4.63;2.58;;;;;;;13.82;61.98;99872.97;5036808;27;124127;-67
2021/11/02 10:45:42;;;;;;;4.22;2.63;;;;;;;13.92;61.68;99890.91;5051337;27;113687;-67
2021/11/02 10:48:11;;;;;;;4.57;2.40;;;;;;;13.97;61.77;99880.78;5047373;27;113864;-67
2021/11/02 10:50:46;;;;;;;5.05;2.70;;;;;;;14.04;61.60;99881.16;5035398;27;123843;-67
2021/11/02 10:53:21;;;;;;;;;;;;;;;14.04;61.62;99876.69;5040193;27;124298;-67
2021/11/02 10:56:16;;;;;;;4.47;2.40;;;;;;;14.08;61.33;99883.47;5040400;27;114875;-67
2021/11/02 10:58:52;;;;;;;3.33;2.60;;;;;;;14.08;61.25;99878.16;5037752;27;113882;-66
2021/11/02 11:01:22;;;;;;;6.72;2.72;;;;;;;14.08;60.99;99878.16;5044689;27;124010;-66
2021/11/02 11:03:55;;;;;;;4.57;2.50;;;;;;;14.08;61.04;99883.47;5036358;27;122963;-67
2021/11/02 11:06:24;;;;;;;4.63;2.60;;;;;;;14.10;61.20;99878.88;5047986;27;113711;-66
2021/11/02 11:08:55;;;;;;;4.72;2.70;;;;;;;14.16;61.25;99881.06;5045291;27;113770;-66
2021/11/02 11:11:30;;;;;;;6.18;2.90;;;;;;;14.21;61.26;99873.59;5022812;27;123684;-67
2021/11/02 11:14:08;;;;;;;5.25;2.60;;;;;;;14.28;61.31;99867.78;5036022;27;123752;-67
2021/11/02 11:16:37;;;;;;;5.75;2.95;;;;;;;14.34;61.16;99872.69;5044557;27;115375;-66
2021/11/02 11:19:24;;;;;;;4.95;2.80;;;;;;;14.36;61.03;99866.25;5042175;27;114704;-67
2021/11/02 11:21:53;;;;;;;5.28;3.00;;;;;;;14.39;60.80;99870.47;5033173;27;124000;-67
2021/11/02 11:24:40;;;;;;;5.07;3.05;;;;;;;14.39;60.93;99867.81;5040294;27;124118;-66
2021/11/02 11:27:08;;;;;;;;;;;;;;;14.41;61.04;99863.25;5042471;27;113939;-66
2021/11/02 11:29:44;;;;;;;4.55;3.05;;;;;;;14.47;60.82;99869.94;5051863;27;113898;-66
2021/11/02 11:32:16;;;;;;;5.82;2.97;;;;;;;14.50;60.97;99862.50;5042450;27;124587;-66
2021/11/02 11:34:51;;;;;;;6.93;3.40;;;;;;;14.57;60.91;99868.25;5039656;27;123181;-66
2021/11/02 11:37:22;;;;;;;4.82;3.40;;;;;;;14.62;60.85;99859.91;5041224;27;113183;-66
2021/11/02 11:40:05;;;;;;;5.18;3.25;;;;;;;14.68;60.62;99864.78;5044447;27;114016;-66
2021/11/02 11:42:35;;;;;;;5.20;3.10;;;;;;;14.72;60.51;99855.56;5037026;27;124824;-66
2021/11/02 11:45:11;;;;;;;5.82;3.10;;;;;;;14.76;60.65;99857.00;5042400;27;124272;-66
2021/11/02 11:47:39;;;;;;;5.47;2.90;;;;;;;14.81;60.49;99854.84;5035388;27;114010;-66
2021/11/02 11:50:21;;;;;;;6.65;3.20;;;;;;;14.83;60.24;99858.25;5047709;27;114594;-66
2021/11/02 11:52:51;;;;;;;6.40;2.75;;;;;;;14.86;60.02;99862.47;5048514;27;124225;-66
2021/11/02 11:55:21;;;;;;;5.03;3.00;;;;;;;14.88;60.19;99848.06;5029096;27;122855;-65
2021/11/02 11:58:07;;;;;;;3.88;2.85;;;;;;;14.89;60.12;99841.75;5051212;27;114941;-66
2021/11/02 12:00:37;;;;;;;5.95;3.40;;;;;;;14.91;60.04;99845.13;5050867;27;113323;-66
2021/11/02 12:03:27;;;;;;;5.95;3.08;;;;;;;14.92;59.80;99840.69;5046318;27;124843;-66
2021/11/02 12:06:03;;;;;;;3.97;3.00;;;;;;;14.92;59.92;99841.53;5039436;27;127348;-66
2021/11/02 12:08:51;;;;;;;6.25;3.03;;;;;;;14.94;59.94;99834.25;5038091;27;115722;-65
2021/11/02 12:11:21;;;;;;;4.38;2.90;;;;;;;14.97;59.78;99833.13;5032698;27;115033;-66
2021/11/02 12:13:53;;;;;;;5.28;2.97;;;;;;;15.01;59.87;99823.06;5033420;27;124252;-66
2021/11/02 12:16:27;;;;;;;5.82;3.00;;;;;;;15.05;59.63;99824.53;5037885;27;124272;-66
2021/11/02 12:19:17;;;;;;;6.72;2.90;;;;;;;15.09;59.68;99816.16;5042521;27;114168;-66
2021/11/02 12:21:58;;;;;;;4.28;3.40;;;;;;;15.10;59.38;99827.69;5038399;27;114269;-65
2021/11/02 12:24:32;;;;;;;3.80;2.85;;;;;;;15.08;59.29;99813.63;5035873;27;124286;-65
2021/11/02 12:27:10;;;;;;;4.00;2.65;;;;;;;15.07;59.43;99818.13;5047642;27;123716;-65
2021/11/02 12:29:41;;;;;;;6.22;2.97;;;;;;;15.07;59.15;99818.13;5036842;27;114245;-66
2021/11/02 12:32:13;;;;;;;4.70;3.05;;;;;;;15.07;59.11;99811.91;5041684;27;114502;-65
2021/11/02 12:35:18;;;;;;;3.60;2.70;;;;;;;15.07;59.30;99806.56;5029288;27;123886;-66
2021/11/02 12:37:58;;;;;;;3.95;2.80;;;;;;;15.08;59.12;99813.63;5050949;27;124119;-66
2021/11/02 12:40:28;;;;;;;6.07;2.90;;;;;;;15.09;59.16;99804.66;5079349;27;113256;-66
2021/11/02 12:43:29;;;;;;;5.70;2.80;;;;;;;15.09;59.30;99804.66;5046304;27;113969;-66
2021/11/02 12:46:00;;;;;;;4.55;2.55;;;;;;;15.12;59.22;99809.72;5049681;27;124687;-66
2021/11/02 12:48:28;;;;;;;5.05;2.72;;;;;;;15.14;59.09;99808.66;5051509;27;124639;-66
2021/11/02 12:51:19;;;;;;;4.00;2.67;;;;;;;15.15;59.05;99804.16;5045337;27;113277;-66
2021/11/02 12:53:52;;;;;;;5.95;2.88;;;;;;;15.15;58.93;99798.81;5044316;27;114155;-65
2021/11/02 12:56:21;;;;;;;5.50;2.67;;;;;;;15.14;58.95;99808.66;5038372;27;124174;-66
2021/11/02 12:59:02;;;;;;;5.40;3.05;;;;;;;15.14;59.06;99797.13;5037938;27;124193;-65
2021/11/02 13:01:34;;;;;;;6.25;2.90;;;;;;;15.14;59.00;99802.44;5041369;27;115365;-65
2021/11/02 13:04:08;;;;;;;5.82;2.70;;;;;;;15.13;58.86;99800.78;5035735;27;115481;-65
2021/11/02 13:06:52;;;;;;;4.25;2.42;;;;;;;15.10;58.92;99796.50;5040319;27;124490;-65
2021/11/02 13:09:21;;;;;;;4.07;2.65;;;;;;;15.11;58.93;99802.72;5035913;27;124289;-66
2021/11/02 13:12:01;;;;;;;4.57;2.88;;;;;;;15.10;58.83;99801.00;5050725;27;114884;-66
2021/11/02 13:14:47;;;;;;;5.65;2.72;;;;;;;15.07;58.93;99806.56;5041891;27;114657;-65
2021/11/02 13:17:26;;;;;;;3.70;2.35;;;;;;;15.05;58.81;99808.53;5037582;27;124688;-66
2021/11/02 13:19:56;;;;;;;5.70;2.78;;;;;;;15.03;58.93;99821.13;5035995;27;124033;-67
2021/11/02 13:22:26;;;;;;;7.15;3.05;;;;;;;14.98;58.90;99809.03;5034843;27;114519;-68
2021/11/02 13:25:05;;;;;;;4.35;3.00;;;;;;;14.93;58.91;99821.88;5033842;27;113770;-72
2021/11/02 13:27:45;;;;;;;3.58;2.17;;;;;;;14.87;58.89;99814.38;5033663;27;123840;-73
2021/11/02 13:30:31;;;;;;;4.53;2.53;;;;;;;14.75;59.04;99823.34;5039734;27;125402;-73
2021/11/02 13:33:01;;;;;;;;;;;;;;;14.66;59.09;99818.75;5049806;27;114106;-73
2021/11/02 13:35:42;;;;;;;3.78;2.38;;;;;;;14.60;58.95;99809.41;5039608;27;113532;-74
2021/11/02 13:38:33;;;;;;;2.90;2.35;;;;;;;14.50;59.22;99814.56;5037305;27;124086;-73
2021/11/02 13:41:00;;;;;;;2.78;1.75;;;;;;;14.43;59.23;99808.03;5034192;27;124425;-73
2021/11/02 13:43:33;;;;;;;3.03;1.80;;;;;;;14.38;59.56;99818.19;5043152;27;114287;-72
2021/11/02 13:46:02;;;;;;;3.80;2.00;;;;;;;14.35;59.59;99821.09;5035027;27;114164;-73
2021/11/02 13:48:32;;;;;;;2.30;1.80;;;;;;;14.33;59.77;99817.69;5035098;27;124398;-72
2021/11/02 13:51:01;;;;;;;3.42;2.00;;;;;;;14.33;59.87;99812.38;5040092;27;123871;-72
2021/11/02 13:53:33;;;;;;;3.50;1.65;;;;;;;14.32;59.91;99808.84;5038142;27;115163;-72
2021/11/02 13:56:04;;;;;;;2.20;1.60;;;;;;;14.30;60.00;99817.94;5043062;27;114995;-72
2021/11/02 13:58:34;;;;;;;2.90;1.70;;;;;;;14.31;60.10;99819.63;5046756;27;124376;-72
2021/11/02 14:01:03;;;;;;;2.72;1.58;;;;;;;14.30;59.98;99812.63;5029638;27;124602;-72
2021/11/02 14:04:06;;;;;;;2.60;2.03;;;;;;;14.31;60.25;99814.28;5033230;27;113824;-72
2021/11/02 14:06:37;;;;;;;2.20;1.52;;;;;;;14.32;60.17;99816.00;5035789;27;113969;-71
2021/11/02 14:09:10;;;;;;;2.30;1.60;;;;;;;14.31;60.19;99819.63;5029933;27;124630;-72
2021/11/02 14:11:39;;;;;;;2.33;1.42;;;;;;;14.28;60.01;99825.19;5032255;27;124751;-72
2021/11/02 14:14:27;;;;;;;1.70;1.20;;;;;;;14.27;60.14;99823.50;5041509;27;114223;-72
2021/11/02 14:16:54;;;;;;;2.40;1.60;;;;;;;14.25;60.04;99822.78;5046710;27;114948;-72
2021/11/02 14:19:33;;;;;;;2.65;1.25;;;;;;;14.24;60.23;99818.41;5035656;27;124713;-72
2021/11/02 14:22:05;;;;;;;2.63;1.38;;;;;;;14.26;60.29;99821.78;5045058;27;123784;-71
2021/11/02 14:24:36;;;;;;;2.20;1.55;;;;;;;14.27;60.37;99823.50;5043904;27;114026;-72
2021/11/02 14:27:05;;;;;;;2.00;1.60;;;;;;;14.27;60.38;99812.84;5033741;27;113997;-71
2021/11/02 14:29:49;;;;;;;3.10;1.65;;;;;;;14.27;60.36;99819.00;5039098;27;123830;-72
2021/11/02 14:32:37;;;;;;;2.35;1.50;;;;;;;14.27;60.33;99818.16;5039406;27;123570;-72
2021/11/02 14:35:53;;;;;;;3.00;1.70;;;;;;;14.27;60.44;99828.81;5042583;27;114567;-73
2021/11/02 14:38:20;;;;;;;3.73;1.83;;;;;;;14.29;60.64;99826.88;5038920;27;114584;-71
2021/11/02 14:41:33;;;;;;;3.00;1.70;;;;;;;14.27;60.25;99828.81;5036149;27;123082;-71
2021/11/02 14:44:23;;;;;;;3.40;1.80;;;;;;;14.21;60.36;99830.97;5034998;27;122714;-71
2021/11/02 14:46:55;;;;;;;2.83;1.80;;;;;;;14.17;60.33;99824.19;5032743;27;114964;-71
2021/11/02 14:49:32;;;;;;;3.28;1.90;;;;;;;14.15;60.26;99826.13;5040391;27;115010;-71
2021/11/02 14:52:01;;;;;;;3.83;1.98;;;;;;;14.15;60.27;99830.63;5042534;27;124814;-71
2021/11/02 14:54:34;;;;;;;3.78;2.00;;;;;;;14.12;60.19;99837.00;5042840;27;124609;-71
2021/11/02 14:57:18;;;;;;;3.97;2.20;;;;;;;14.10;60.31;99832.78;5034153;27;114190;-71
2021/11/02 14:59:52;;;;;;;2.92;1.83;;;;;;;14.08;60.22;99830.22;5042341;27;114340;-71
2021/11/02 15:02:42;;;;;;;3.73;2.10;;;;;;;14.06;60.34;99837.47;5045049;27;123189;-71
2021/11/02 15:05:12;;;;;;;2.92;2.40;;;;;;;14.02;60.19;99842.19;5054984;27;122202;-71
2021/11/02 15:07:43;;;;;;;4.57;2.63;;;;;;;13.98;60.19;99839.88;5040923;27;114241;-70
2021/11/02 15:10:13;;;;;;;6.68;2.80;;;;;;;13.95;60.16;99843.59;5035100;27;113100;-70
2021/11/02 15:12:46;;;;;;;4.22;2.80;;;;;;;13.91;60.19;99849.28;5041328;27;124227;-70
2021/11/02 15:15:13;;;;;;;4.15;3.10;;;;;;;13.90;60.27;99847.59;5036543;27;123895;-70
2021/11/02 15:17:41;;;;;;;5.30;3.83;;;;;;;13.85;60.20;99844.44;5041055;27;114253;-70
2021/11/02 15:20:26;;;;;;;5.18;3.70;;;;;;;13.80;60.04;99842.94;5047158;27;113242;-70
2021/11/02 15:22:57;;;;;;;5.75;4.20;;;;;;;13.76;60.24;99841.47;5040065;27;125201;-70
2021/11/02 15:25:26;;;;;;;5.72;4.22;;;;;;;13.73;60.35;99852.38;5046623;27;124025;-70
2021/11/02 15:27:59;;;;;;;6.78;3.80;;;;;;;13.69;60.19;99845.56;5051973;27;114198;-70
2021/11/02 15:30:27;;;;;;;6.15;4.38;;;;;;;13.65;60.32;99856.56;5043614;27;113991;-70
2021/11/02 15:32:54;;;;;;;6.72;4.32;;;;;;;13.61;60.20;99853.25;5043455;27;124031;-70
2021/11/02 15:35:23;;;;;;;6.82;4.30;;;;;;;13.58;60.38;99858.78;5037729;27;123595;-70
2021/11/02 15:37:54;;;;;;;6.55;4.53;;;;;;;13.57;60.45;99857.13;5044620;27;115947;-70
2021/11/02 15:40:29;;;;;;;5.55;4.10;;;;;;;13.55;60.49;99861.69;5041576;27;115190;-70
2021/11/02 15:42:58;;;;;;;7.20;4.95;;;;;;;13.53;60.43;99866.28;5042186;27;124054;-70
2021/11/02 15:45:36;;;;;;;6.97;4.45;;;;;;;13.53;60.36;99853.00;5046533;27;123823;-70
2021/11/02 15:48:10;;;;;;;6.45;4.78;;;;;;;13.49;60.34;99859.50;5044385;27;114155;-70
2021/11/02 15:50:41;;;;;;;7.75;5.28;;;;;;;13.44;60.27;99852.69;5046463;27;114259;-71
2021/11/02 15:53:10;;;;;;;7.22;4.82;;;;;;;13.41;60.33;99858.25;5039082;27;123696;-70
2021/11/02 15:55:38;;;;;;;8.30;4.78;;;;;;;13.38;60.34;99863.78;5040882;27;123871;-70
2021/11/02 15:58:08;;;;;;;7.38;5.00;;;;;;;13.36;60.34;99864.84;5034544;27;114567;-70
2021/11/02 16:00:39;;;;;;;8.00;5.13;;;;;;;13.32;60.36;99869.53;5043009;27;114059;-70
2021/11/02 16:03:10;;;;;;;9.18;5.90;;;;;;;13.27;60.02;99871.66;5045294;27;123943;-70
2021/11/02 16:05:41;;;;;;;10.45;5.68;;;;;;;13.24;60.41;99866.53;5052218;27;124279;-71
2021/11/02 16:08:20;;;;;;;9.82;6.43;;;;;;;13.18;60.42;99875.81;5047470;27;114305;-70
2021/11/02 16:10:51;;;;;;;10.20;6.18;;;;;;;13.15;60.36;99872.53;5048503;27;114065;-70
2021/11/02 16:13:29;;;;;;;10.82;6.57;;;;;;;13.09;60.37;99868.50;5052375;27;124768;-71
2021/11/02 16:15:58;;;;;;;10.00;6.43;;;;;;;13.06;60.51;99874.03;5048531;27;124497;-70
2021/11/02 16:18:32;;;;;;;9.38;6.45;;;;;;;13.03;60.56;99880.44;5044389;27;114895;-71
2021/11/02 16:21:03;;;;;;;9.82;6.53;;;;;;;12.98;60.60;99871.94;5044630;27;113302;-70
2021/11/02 16:23:42;;;;;;;9.95;6.43;;;;;;;12.94;60.38;99874.88;5036401;27;123956;-70
2021/11/02 16:26:18;;;;;;;10.88;6.65;;;;;;;12.91;60.54;99875.13;5035860;27;123914;-71
2021/11/02 16:28:46;;;;;;;10.00;6.70;;;;;;;12.88;60.68;99878.81;5040543;27;115893;-71
2021/11/02 16:31:22;;;;;;;11.93;6.80;;;;;;;12.85;60.68;99876.41;5040215;27;115681;-72
2021/11/02 16:33:49;;;;;;;10.27;6.25;;;;;;;12.80;60.34;99883.84;5046458;27;123665;-70
2021/11/02 16:36:24;;;;;;;12.20;7.05;;;;;;;12.77;60.64;99889.34;5036737;27;123951;-70
2021/11/02 16:38:56;;;;;;;12.70;6.90;;;;;;;12.73;60.75;99887.88;5046382;27;113069;-70
2021/11/02 16:41:32;;;;;;;10.63;6.85;;;;;;;12.70;60.55;99888.94;5041254;27;114812;-71
2021/11/02 16:44:06;;;;;;;11.73;7.38;;;;;;;12.65;60.55;99881.28;5031660;27;122833;-70
2021/11/02 16:46:35;;;;;;;11.27;6.70;;;;;;;12.62;60.55;99886.81;5033375;27;123917;-70
2021/11/02 16:49:21;;;;;;;14.20;7.40;;;;;;;12.58;60.61;99885.34;5038888;27;114053;-70
2021/11/02 16:51:49;;;;;;;;;;;;;;;12.54;60.46;99894.44;5033978;27;114868;-70
2021/11/02 16:54:22;;;;;;;12.43;7.50;;;;;;;12.52;60.40;99891.06;5036797;27;124597;-70